sensor_id;sensor_type;location;lat;lon;timestamp;pressure;altitude;pressure_sealevel;temperature;humidity
23253;BME280;11795;47.054;15.408;2023-07-29T00:00:00;97030;;;21.2;79.9
23253;BME280;11795;47.054;15.408;2023-07-29T00:02:00;97030;;;21.4;79.3
23253;BME280;11795;47.054;15.408;2023-07-29T00:04:00;97040;;;21.2;80.0
23253;BME280;11795;47.054;15.408;2023-07-29T00:06:00;97040;;;21.2;80.1
23253;BME280;11795;47.054;15.408;2023-07-29T00:08:00;97040;;;21.2;79.8
23253;BME280;11795;47.054;15.408;2023-07-29T00:10:00;97040;;;21.1;80.1
23253;BME280;11795;47.054;15.408;2023-07-29T00:12:00;97040;;;21.3;79.2
23253;BME280;11795;47.054;15.408;2023-07-29T00:14:00;97040;;;21.1;79.7
23253;BME280;11795;47.054;15.408;2023-07-29T00:16:00;97050;;;21.2;79.7
23253;BME280;11795;47.054;15.408;2023-07-29T00:18:00;97050;;;21.1;79.4
23253;BME280;11795;47.054;15.408;2023-07-29T00:20:00;97050;;;21.0;79.9
23253;BME280;11795;47.054;15.408;2023-07-29T00:22:00;97040;;;21.1;79.5
23253;BME280;11795;47.054;15.408;2023-07-29T00:24:01;97040;;;21.0;79.7
23253;BME280;11795;47.054;15.408;2023-07-29T00:26:00;97050;;;21.1;79.7
23253;BME280;11795;47.054;15.408;2023-07-29T00:28:00;97040;;;21.0;79.5
23253;BME280;11795;47.054;15.408;2023-07-29T00:30:00;97040;;;21.0;79.9
23253;BME280;11795;47.054;15.408;2023-07-29T00:32:00;97040;;;21.2;79.0
23253;BME280;11795;47.054;15.408;2023-07-29T00:34:00;97040;;;21.0;79.6
23253;BME280;11795;47.054;15.408;2023-07-29T00:36:02;97040;;;21.0;79.8
23253;BME280;11795;47.054;15.408;2023-07-29T00:38:00;97040;;;21.0;79.4
23253;BME280;11795;47.054;15.408;2023-07-29T00:40:00;97030;;;21.0;79.8
23253;BME280;11795;47.054;15.408;2023-07-29T00:42:00;97040;;;21.1;79.4
23253;BME280;11795;47.054;15.408;2023-07-29T00:44:00;97030;;;20.9;80.2
23253;BME280;11795;47.054;15.408;2023-07-29T00:46:00;97030;;;20.9;80.6
23253;BME280;11795;47.054;15.408;2023-07-29T00:48:01;97030;;;20.9;80.3
23253;BME280;11795;47.054;15.408;2023-07-29T00:50:00;97020;;;20.8;80.8
23253;BME280;11795;47.054;15.408;2023-07-29T00:52:00;97020;;;21.0;80.3
23253;BME280;11795;47.054;15.408;2023-07-29T00:54:00;97020;;;20.8;81.0
23253;BME280;11795;47.054;15.408;2023-07-29T00:56:00;97020;;;20.8;81.0
23253;BME280;11795;47.054;15.408;2023-07-29T00:58:00;97020;;;20.8;80.8
23253;BME280;11795;47.054;15.408;2023-07-29T01:00:01;97020;;;20.7;81.5
23253;BME280;11795;47.054;15.408;2023-07-29T01:02:00;97010;;;20.9;80.9
23253;BME280;11795;47.054;15.408;2023-07-29T01:04:00;97010;;;20.7;81.6
23253;BME280;11795;47.054;15.408;2023-07-29T01:06:09;97000;;;20.7;81.7
23253;BME280;11795;47.054;15.408;2023-07-29T01:08:06;97000;;;20.7;81.3
23253;BME280;11795;47.054;15.408;2023-07-29T01:10:03;97010;;;20.6;82.2
23253;BME280;11795;47.054;15.408;2023-07-29T01:12:07;97000;;;20.8;81.6
23253;BME280;11795;47.054;15.408;2023-07-29T01:14:04;97010;;;20.6;82.2
23253;BME280;11795;47.054;15.408;2023-07-29T01:16:03;97010;;;20.5;82.6
23253;BME280;11795;47.054;15.408;2023-07-29T01:18:04;97000;;;20.6;82.2
23253;BME280;11795;47.054;15.408;2023-07-29T01:20:04;97010;;;20.5;82.8
23253;BME280;11795;47.054;15.408;2023-07-29T01:22:00;97000;;;20.6;82.5
23253;BME280;11795;47.054;15.408;2023-07-29T01:24:00;97010;;;20.4;83.1
23253;BME280;11795;47.054;15.408;2023-07-29T01:26:00;97010;;;20.3;83.9
23253;BME280;11795;47.054;15.408;2023-07-29T01:28:00;97000;;;20.4;83.4
23253;BME280;11795;47.054;15.408;2023-07-29T01:30:01;97010;;;20.2;84.3
23253;BME280;11795;47.054;15.408;2023-07-29T01:32:04;97010;;;20.4;83.8
23253;BME280;11795;47.054;15.408;2023-07-29T01:34:06;97010;;;20.2;84.3
23253;BME280;11795;47.054;15.408;2023-07-29T01:36:02;97010;;;20.1;84.8
23253;BME280;11795;47.054;15.408;2023-07-29T01:38:04;97010;;;20.2;84.0
23253;BME280;11795;47.054;15.408;2023-07-29T01:40:00;97010;;;20.1;84.6
23253;BME280;11795;47.054;15.408;2023-07-29T01:42:01;97010;;;20.3;83.9
23253;BME280;11795;47.054;15.408;2023-07-29T01:44:01;97000;;;20.2;84.2
23253;BME280;11795;47.054;15.408;2023-07-29T01:46:00;97000;;;20.1;84.4
23253;BME280;11795;47.054;15.408;2023-07-29T01:48:00;97010;;;20.2;83.8
23253;BME280;11795;47.054;15.408;2023-07-29T01:50:00;97010;;;20.0;84.7
23253;BME280;11795;47.054;15.408;2023-07-29T01:52:00;97010;;;20.1;84.1
23253;BME280;11795;47.054;15.408;2023-07-29T01:54:00;97010;;;20.0;84.4
23253;BME280;11795;47.054;15.408;2023-07-29T01:56:01;97010;;;19.9;84.6
23253;BME280;11795;47.054;15.408;2023-07-29T01:58:00;97000;;;20.1;83.9
23253;BME280;11795;47.054;15.408;2023-07-29T02:00:02;97010;;;20.0;84.4
23253;BME280;11795;47.054;15.408;2023-07-29T02:02:00;97000;;;20.1;83.5
23253;BME280;11795;47.054;15.408;2023-07-29T02:04:00;97000;;;19.9;84.1
23253;BME280;11795;47.054;15.408;2023-07-29T02:06:00;97010;;;19.9;84.6
23253;BME280;11795;47.054;15.408;2023-07-29T02:08:00;97010;;;20.0;83.8
23253;BME280;11795;47.054;15.408;2023-07-29T02:10:00;97000;;;19.9;84.4
23253;BME280;11795;47.054;15.408;2023-07-29T02:12:00;97000;;;20.1;83.7
23253;BME280;11795;47.054;15.408;2023-07-29T02:14:00;97000;;;19.9;84.2
23253;BME280;11795;47.054;15.408;2023-07-29T02:16:00;97000;;;19.9;84.5
23253;BME280;11795;47.054;15.408;2023-07-29T02:18:02;97000;;;20.0;83.9
23253;BME280;11795;47.054;15.408;2023-07-29T02:20:00;97000;;;19.9;84.7
23253;BME280;11795;47.054;15.408;2023-07-29T02:22:00;97010;;;20.0;84.2
23253;BME280;11795;47.054;15.408;2023-07-29T02:24:00;97010;;;19.9;84.4
23253;BME280;11795;47.054;15.408;2023-07-29T02:26:00;97010;;;19.8;84.9
23253;BME280;11795;47.054;15.408;2023-07-29T02:28:00;97010;;;20.0;84.3
23253;BME280;11795;47.054;15.408;2023-07-29T02:30:00;97010;;;19.8;85.2
23253;BME280;11795;47.054;15.408;2023-07-29T02:32:00;97010;;;20.0;84.8
23253;BME280;11795;47.054;15.408;2023-07-29T02:34:00;97010;;;19.8;85.2
23253;BME280;11795;47.054;15.408;2023-07-29T02:36:00;97010;;;19.8;85.6
23253;BME280;11795;47.054;15.408;2023-07-29T02:38:00;97020;;;19.9;85.0
23253;BME280;11795;47.054;15.408;2023-07-29T02:40:00;97020;;;19.8;85.8
23253;BME280;11795;47.054;15.408;2023-07-29T02:42:00;97020;;;19.9;85.2
23253;BME280;11795;47.054;15.408;2023-07-29T02:44:01;97020;;;19.8;85.5
23253;BME280;11795;47.054;15.408;2023-07-29T02:46:00;97020;;;19.7;85.9
23253;BME280;11795;47.054;15.408;2023-07-29T02:48:00;97020;;;19.8;85.2
23253;BME280;11795;47.054;15.408;2023-07-29T02:50:00;97020;;;19.7;85.7
23253;BME280;11795;47.054;15.408;2023-07-29T02:52:00;97020;;;19.8;85.4
23253;BME280;11795;47.054;15.408;2023-07-29T02:54:00;97020;;;19.6;86.1
23253;BME280;11795;47.054;15.408;2023-07-29T02:56:00;97010;;;19.5;86.5
23253;BME280;11795;47.054;15.408;2023-07-29T02:58:00;97010;;;19.7;86.0
23253;BME280;11795;47.054;15.408;2023-07-29T03:00:00;97020;;;19.6;86.6
23253;BME280;11795;47.054;15.408;2023-07-29T03:02:00;97010;;;19.7;86.3
23253;BME280;11795;47.054;15.408;2023-07-29T03:04:01;97020;;;19.6;86.3
23253;BME280;11795;47.054;15.408;2023-07-29T03:06:03;97010;;;19.4;86.9
23253;BME280;11795;47.054;15.408;2023-07-29T03:08:00;97010;;;19.6;86.1
23253;BME280;11795;47.054;15.408;2023-07-29T03:10:00;97020;;;19.5;86.6
23253;BME280;11795;47.054;15.408;2023-07-29T03:12:00;97020;;;19.6;86.1
23253;BME280;11795;47.054;15.408;2023-07-29T03:14:00;97020;;;19.5;86.2
23253;BME280;11795;47.054;15.408;2023-07-29T03:16:05;97020;;;19.4;86.6
23253;BME280;11795;47.054;15.408;2023-07-29T03:18:00;97020;;;19.6;85.6
23253;BME280;11795;47.054;15.408;2023-07-29T03:20:00;97020;;;19.5;86.3
23253;BME280;11795;47.054;15.408;2023-07-29T03:22:00;97020;;;19.6;86.1
23253;BME280;11795;47.054;15.408;2023-07-29T03:24:00;97020;;;19.5;86.4
23253;BME280;11795;47.054;15.408;2023-07-29T03:26:01;97020;;;19.3;87.6
23253;BME280;11795;47.054;15.408;2023-07-29T03:28:00;97020;;;19.4;87.5
23253;BME280;11795;47.054;15.408;2023-07-29T03:30:00;97010;;;19.3;88.3
23253;BME280;11795;47.054;15.408;2023-07-29T03:32:00;97010;;;19.5;88.2
23253;BME280;11795;47.054;15.408;2023-07-29T03:34:00;97000;;;19.5;88.5
23253;BME280;11795;47.054;15.408;2023-07-29T03:36:00;97010;;;19.4;89.3
23253;BME280;11795;47.054;15.408;2023-07-29T03:38:00;97010;;;19.6;88.5
23253;BME280;11795;47.054;15.408;2023-07-29T03:40:00;97010;;;19.5;89.2
23253;BME280;11795;47.054;15.408;2023-07-29T03:42:00;97010;;;19.6;89.1
23253;BME280;11795;47.054;15.408;2023-07-29T03:44:00;97010;;;19.5;89.3
23253;BME280;11795;47.054;15.408;2023-07-29T03:46:00;97020;;;19.5;89.8
23253;BME280;11795;47.054;15.408;2023-07-29T03:48:00;97020;;;19.6;90.4
23253;BME280;11795;47.054;15.408;2023-07-29T03:50:02;97020;;;19.5;91.2
23253;BME280;11795;47.054;15.408;2023-07-29T03:52:00;97020;;;19.6;91.0
23253;BME280;11795;47.054;15.408;2023-07-29T03:54:00;97020;;;19.6;91.0
23253;BME280;11795;47.054;15.408;2023-07-29T03:56:00;97020;;;19.5;92.1
23253;BME280;11795;47.054;15.408;2023-07-29T03:58:00;97030;;;19.7;91.2
23253;BME280;11795;47.054;15.408;2023-07-29T04:00:00;97030;;;19.6;91.9
23253;BME280;11795;47.054;15.408;2023-07-29T04:02:00;97030;;;19.7;91.4
23253;BME280;11795;47.054;15.408;2023-07-29T04:04:00;97040;;;19.7;91.2
23253;BME280;11795;47.054;15.408;2023-07-29T04:06:00;97040;;;19.6;91.8
23253;BME280;11795;47.054;15.408;2023-07-29T04:08:00;97040;;;19.8;91.0
23253;BME280;11795;47.054;15.408;2023-07-29T04:10:01;97040;;;19.7;91.5
23253;BME280;11795;47.054;15.408;2023-07-29T04:12:00;97040;;;19.8;91.2
23253;BME280;11795;47.054;15.408;2023-07-29T04:14:00;97040;;;19.7;91.6
23253;BME280;11795;47.054;15.408;2023-07-29T04:16:00;97050;;;19.6;92.4
23253;BME280;11795;47.054;15.408;2023-07-29T04:18:00;97040;;;19.8;91.4
23253;BME280;11795;47.054;15.408;2023-07-29T04:20:00;97050;;;19.7;91.6
23253;BME280;11795;47.054;15.408;2023-07-29T04:22:00;97060;;;19.8;91.5
23253;BME280;11795;47.054;15.408;2023-07-29T04:24:00;97060;;;19.8;91.2
23253;BME280;11795;47.054;15.408;2023-07-29T04:26:00;97050;;;19.7;91.6
23253;BME280;11795;47.054;15.408;2023-07-29T04:28:01;97060;;;19.9;90.8
23253;BME280;11795;47.054;15.408;2023-07-29T04:30:00;97050;;;19.8;91.1
23253;BME280;11795;47.054;15.408;2023-07-29T04:32:01;97050;;;19.8;91.4
23253;BME280;11795;47.054;15.408;2023-07-29T04:34:00;97060;;;19.8;91.4
23253;BME280;11795;47.054;15.408;2023-07-29T04:36:00;97060;;;19.8;91.8
23253;BME280;11795;47.054;15.408;2023-07-29T04:38:00;97060;;;19.7;92.0
23253;BME280;11795;47.054;15.408;2023-07-29T04:40:00;97060;;;19.7;92.7
23253;BME280;11795;47.054;15.408;2023-07-29T04:42:01;97060;;;19.7;92.8
23253;BME280;11795;47.054;15.408;2023-07-29T04:44:00;97060;;;19.8;92.2
23253;BME280;11795;47.054;15.408;2023-07-29T04:46:00;97070;;;19.7;93.0
23253;BME280;11795;47.054;15.408;2023-07-29T04:48:00;97070;;;19.8;92.3
23253;BME280;11795;47.054;15.408;2023-07-29T04:50:00;97070;;;19.7;92.9
23253;BME280;11795;47.054;15.408;2023-07-29T04:52:00;97070;;;19.7;93.3
23253;BME280;11795;47.054;15.408;2023-07-29T04:54:00;97070;;;19.8;92.7
23253;BME280;11795;47.054;15.408;2023-07-29T04:56:00;97070;;;19.7;93.2
23253;BME280;11795;47.054;15.408;2023-07-29T04:58:00;97080;;;19.9;91.8
23253;BME280;11795;47.054;15.408;2023-07-29T05:00:00;97070;;;19.8;91.8
23253;BME280;11795;47.054;15.408;2023-07-29T05:02:00;97080;;;19.9;92.0
23253;BME280;11795;47.054;15.408;2023-07-29T05:04:00;97070;;;19.9;90.9
23253;BME280;11795;47.054;15.408;2023-07-29T05:06:00;97070;;;19.9;91.4
23253;BME280;11795;47.054;15.408;2023-07-29T05:08:00;97080;;;20.1;90.5
23253;BME280;11795;47.054;15.408;2023-07-29T05:10:00;97080;;;20.0;90.5
23253;BME280;11795;47.054;15.408;2023-07-29T05:12:00;97080;;;20.0;90.6
23253;BME280;11795;47.054;15.408;2023-07-29T05:14:03;97070;;;20.1;89.7
23253;BME280;11795;47.054;15.408;2023-07-29T05:16:00;97070;;;20.1;90.1
23253;BME280;11795;47.054;15.408;2023-07-29T05:18:00;97070;;;20.3;89.3
23253;BME280;11795;47.054;15.408;2023-07-29T05:20:00;97070;;;20.2;89.6
23253;BME280;11795;47.054;15.408;2023-07-29T05:22:00;97070;;;20.2;89.9
23253;BME280;11795;47.054;15.408;2023-07-29T05:24:00;97070;;;20.3;89.1
23253;BME280;11795;47.054;15.408;2023-07-29T05:26:00;97080;;;20.2;89.6
23253;BME280;11795;47.054;15.408;2023-07-29T05:28:01;97080;;;20.4;88.8
23253;BME280;11795;47.054;15.408;2023-07-29T05:30:00;97080;;;20.3;89.2
23253;BME280;11795;47.054;15.408;2023-07-29T05:32:00;97080;;;20.2;89.5
23253;BME280;11795;47.054;15.408;2023-07-29T05:34:00;97080;;;20.4;88.7
23253;BME280;11795;47.054;15.408;2023-07-29T05:36:00;97070;;;20.3;88.9
23253;BME280;11795;47.054;15.408;2023-07-29T05:38:00;97070;;;20.5;88.1
23253;BME280;11795;47.054;15.408;2023-07-29T05:40:00;97080;;;20.3;88.7
23253;BME280;11795;47.054;15.408;2023-07-29T05:42:02;97080;;;20.3;89.1
23253;BME280;11795;47.054;15.408;2023-07-29T05:44:00;97080;;;20.4;88.3
23253;BME280;11795;47.054;15.408;2023-07-29T05:46:00;97080;;;20.3;89.0
23253;BME280;11795;47.054;15.408;2023-07-29T05:48:00;97080;;;20.5;88.1
23253;BME280;11795;47.054;15.408;2023-07-29T05:50:05;97080;;;20.4;88.3
23253;BME280;11795;47.054;15.408;2023-07-29T05:52:00;97080;;;20.3;88.5
23253;BME280;11795;47.054;15.408;2023-07-29T05:54:00;97080;;;20.5;87.6
23253;BME280;11795;47.054;15.408;2023-07-29T05:56:00;97080;;;20.4;88.0
23253;BME280;11795;47.054;15.408;2023-07-29T05:58:00;97080;;;20.6;86.9
23253;BME280;11795;47.054;15.408;2023-07-29T06:00:00;97090;;;20.5;87.1
23253;BME280;11795;47.054;15.408;2023-07-29T06:02:00;97100;;;20.5;87.2
23253;BME280;11795;47.054;15.408;2023-07-29T06:04:00;97090;;;20.6;86.5
23253;BME280;11795;47.054;15.408;2023-07-29T06:06:00;97090;;;20.5;87.5
23253;BME280;11795;47.054;15.408;2023-07-29T06:08:00;97090;;;20.6;87.2
23253;BME280;11795;47.054;15.408;2023-07-29T06:10:00;97090;;;20.5;87.2
23253;BME280;11795;47.054;15.408;2023-07-29T06:12:00;97090;;;20.4;88.2
23253;BME280;11795;47.054;15.408;2023-07-29T06:14:00;97090;;;20.5;87.8
23253;BME280;11795;47.054;15.408;2023-07-29T06:16:00;97080;;;20.5;87.8
23253;BME280;11795;47.054;15.408;2023-07-29T06:18:00;97080;;;20.5;88.0
23253;BME280;11795;47.054;15.408;2023-07-29T06:20:00;97080;;;20.5;88.4
23253;BME280;11795;47.054;15.408;2023-07-29T06:22:01;97080;;;20.5;88.2
23253;BME280;11795;47.054;15.408;2023-07-29T06:24:00;97080;;;20.6;87.4
23253;BME280;11795;47.054;15.408;2023-07-29T06:26:00;97080;;;20.6;87.5
23253;BME280;11795;47.054;15.408;2023-07-29T06:28:00;97090;;;20.8;87.1
23253;BME280;11795;47.054;15.408;2023-07-29T06:30:01;97080;;;20.8;86.6
23253;BME280;11795;47.054;15.408;2023-07-29T06:32:00;97080;;;20.7;86.1
23253;BME280;11795;47.054;15.408;2023-07-29T06:34:00;97080;;;20.9;85.7
23253;BME280;11795;47.054;15.408;2023-07-29T06:36:00;97080;;;20.9;86.1
23253;BME280;11795;47.054;15.408;2023-07-29T06:38:00;97080;;;21.2;84.0
23253;BME280;11795;47.054;15.408;2023-07-29T06:40:00;97070;;;21.2;83.2
23253;BME280;11795;47.054;15.408;2023-07-29T06:42:00;97070;;;21.1;83.6
23253;BME280;11795;47.054;15.408;2023-07-29T06:44:00;97070;;;21.3;82.9
23253;BME280;11795;47.054;15.408;2023-07-29T06:46:00;97070;;;21.3;82.7
23253;BME280;11795;47.054;15.408;2023-07-29T06:48:00;97070;;;21.5;82.2
23253;BME280;11795;47.054;15.408;2023-07-29T06:50:00;97070;;;21.5;81.9
23253;BME280;11795;47.054;15.408;2023-07-29T06:52:00;97080;;;21.5;82.1
23253;BME280;11795;47.054;15.408;2023-07-29T06:54:00;97080;;;21.7;81.2
23253;BME280;11795;47.054;15.408;2023-07-29T06:56:00;97090;;;21.6;80.7
23253;BME280;11795;47.054;15.408;2023-07-29T06:58:00;97090;;;21.8;79.2
23253;BME280;11795;47.054;15.408;2023-07-29T07:00:00;97080;;;21.7;79.3
23253;BME280;11795;47.054;15.408;2023-07-29T07:02:01;97080;;;21.7;79.5
23253;BME280;11795;47.054;15.408;2023-07-29T07:04:00;97080;;;21.8;77.8
23253;BME280;11795;47.054;15.408;2023-07-29T07:06:00;97080;;;21.8;78.0
23253;BME280;11795;47.054;15.408;2023-07-29T07:08:00;97080;;;21.9;77.4
23253;BME280;11795;47.054;15.408;2023-07-29T07:10:00;97080;;;21.9;77.1
23253;BME280;11795;47.054;15.408;2023-07-29T07:12:00;97080;;;21.8;77.5
23253;BME280;11795;47.054;15.408;2023-07-29T07:14:00;97070;;;22.0;76.9
23253;BME280;11795;47.054;15.408;2023-07-29T07:16:00;97070;;;22.0;77.0
23253;BME280;11795;47.054;15.408;2023-07-29T07:18:00;97070;;;22.2;75.3
23253;BME280;11795;47.054;15.408;2023-07-29T07:20:00;97070;;;22.3;75.4
23253;BME280;11795;47.054;15.408;2023-07-29T07:22:00;97060;;;22.5;74.9
23253;BME280;11795;47.054;15.408;2023-07-29T07:24:00;97060;;;22.8;71.9
23253;BME280;11795;47.054;15.408;2023-07-29T07:26:00;97060;;;22.8;71.0
23253;BME280;11795;47.054;15.408;2023-07-29T07:28:00;97060;;;23.0;69.6
23253;BME280;11795;47.054;15.408;2023-07-29T07:30:00;97050;;;23.0;69.5
23253;BME280;11795;47.054;15.408;2023-07-29T07:32:00;97050;;;23.2;68.8
23253;BME280;11795;47.054;15.408;2023-07-29T07:34:02;97060;;;23.5;67.4
23253;BME280;11795;47.054;15.408;2023-07-29T07:36:00;97050;;;23.6;67.4
23253;BME280;11795;47.054;15.408;2023-07-29T07:38:02;97050;;;23.9;64.9
23253;BME280;11795;47.054;15.408;2023-07-29T07:40:00;97060;;;23.9;64.2
23253;BME280;11795;47.054;15.408;2023-07-29T07:42:00;97050;;;24.1;65.4
23253;BME280;11795;47.054;15.408;2023-07-29T07:44:00;97050;;;24.4;62.7
23253;BME280;11795;47.054;15.408;2023-07-29T07:46:01;97050;;;24.4;61.3
23253;BME280;11795;47.054;15.408;2023-07-29T07:48:00;97060;;;24.6;61.8
23253;BME280;11795;47.054;15.408;2023-07-29T07:50:00;97060;;;24.8;62.4
23253;BME280;11795;47.054;15.408;2023-07-29T07:52:00;97050;;;24.9;61.1
23253;BME280;11795;47.054;15.408;2023-07-29T07:54:00;97050;;;25.2;60.3
23253;BME280;11795;47.054;15.408;2023-07-29T07:56:00;97050;;;25.2;59.0
23253;BME280;11795;47.054;15.408;2023-07-29T07:58:00;97040;;;25.1;56.4
23253;BME280;11795;47.054;15.408;2023-07-29T08:00:00;97040;;;25.1;56.4
23253;BME280;11795;47.054;15.408;2023-07-29T08:02:00;97050;;;25.1;57.6
23253;BME280;11795;47.054;15.408;2023-07-29T08:04:00;97040;;;25.4;57.6
23253;BME280;11795;47.054;15.408;2023-07-29T08:06:00;97040;;;25.5;58.4
23253;BME280;11795;47.054;15.408;2023-07-29T08:08:00;97040;;;25.9;57.7
23253;BME280;11795;47.054;15.408;2023-07-29T08:10:00;97040;;;26.1;57.8
23253;BME280;11795;47.054;15.408;2023-07-29T08:12:00;97040;;;26.3;57.3
23253;BME280;11795;47.054;15.408;2023-07-29T08:14:00;97040;;;26.5;54.7
23253;BME280;11795;47.054;15.408;2023-07-29T08:16:00;97040;;;26.4;54.0
23253;BME280;11795;47.054;15.408;2023-07-29T08:18:00;97040;;;26.6;54.9
23253;BME280;11795;47.054;15.408;2023-07-29T08:20:00;97040;;;26.8;54.6
23253;BME280;11795;47.054;15.408;2023-07-29T08:22:02;97030;;;26.9;55.8
23253;BME280;11795;47.054;15.408;2023-07-29T08:24:00;97030;;;27.3;51.7
23253;BME280;11795;47.054;15.408;2023-07-29T08:26:03;97020;;;27.0;52.0
23253;BME280;11795;47.054;15.408;2023-07-29T08:28:00;97020;;;27.2;52.3
23253;BME280;11795;47.054;15.408;2023-07-29T08:30:00;97020;;;27.2;51.9
23253;BME280;11795;47.054;15.408;2023-07-29T08:32:00;97030;;;27.4;50.0
23253;BME280;11795;47.054;15.408;2023-07-29T08:34:00;97020;;;27.4;50.5
23253;BME280;11795;47.054;15.408;2023-07-29T08:36:00;97020;;;27.4;51.4
23253;BME280;11795;47.054;15.408;2023-07-29T08:38:02;97020;;;27.6;51.8
23253;BME280;11795;47.054;15.408;2023-07-29T08:40:00;97020;;;27.7;49.6
23253;BME280;11795;47.054;15.408;2023-07-29T08:42:02;97020;;;27.6;50.8
23253;BME280;11795;47.054;15.408;2023-07-29T08:44:06;97030;;;27.8;50.1
23253;BME280;11795;47.054;15.408;2023-07-29T08:46:00;97030;;;27.6;48.7
23253;BME280;11795;47.054;15.408;2023-07-29T08:48:02;97020;;;27.7;49.6
23253;BME280;11795;47.054;15.408;2023-07-29T08:50:03;97020;;;27.8;49.6
23253;BME280;11795;47.054;15.408;2023-07-29T08:52:01;97020;;;27.9;50.5
23253;BME280;11795;47.054;15.408;2023-07-29T08:54:01;97030;;;28.2;49.8
23253;BME280;11795;47.054;15.408;2023-07-29T08:56:00;97020;;;28.3;50.6
23253;BME280;11795;47.054;15.408;2023-07-29T08:58:02;97020;;;28.5;49.7
23253;BME280;11795;47.054;15.408;2023-07-29T09:00:01;97020;;;28.3;49.2
23253;BME280;11795;47.054;15.408;2023-07-29T09:02:01;97030;;;28.0;49.6
23253;BME280;11795;47.054;15.408;2023-07-29T09:04:00;97020;;;28.0;49.5
23253;BME280;11795;47.054;15.408;2023-07-29T09:06:01;97020;;;28.0;52.2
23253;BME280;11795;47.054;15.408;2023-07-29T09:08:02;97020;;;28.1;52.5
23253;BME280;11795;47.054;15.408;2023-07-29T09:10:00;97020;;;28.1;52.7
23253;BME280;11795;47.054;15.408;2023-07-29T09:12:00;97020;;;28.2;52.3
23253;BME280;11795;47.054;15.408;2023-07-29T09:14:00;97020;;;28.4;50.5
23253;BME280;11795;47.054;15.408;2023-07-29T09:16:00;97020;;;28.3;50.9
23253;BME280;11795;47.054;15.408;2023-07-29T09:18:09;97020;;;28.3;51.1
23253;BME280;11795;47.054;15.408;2023-07-29T09:20:00;97010;;;28.4;47.8
23253;BME280;11795;47.054;15.408;2023-07-29T09:22:00;97010;;;28.4;47.8
23253;BME280;11795;47.054;15.408;2023-07-29T09:24:02;97010;;;28.6;48.9
23253;BME280;11795;47.054;15.408;2023-07-29T09:26:01;97010;;;28.5;47.1
23253;BME280;11795;47.054;15.408;2023-07-29T09:28:01;97010;;;28.4;47.5
23253;BME280;11795;47.054;15.408;2023-07-29T09:30:00;97000;;;28.5;48.1
23253;BME280;11795;47.054;15.408;2023-07-29T09:32:18;97010;;;28.4;46.6
23253;BME280;11795;47.054;15.408;2023-07-29T09:34:02;97010;;;28.2;46.1
23253;BME280;11795;47.054;15.408;2023-07-29T09:36:00;97010;;;28.2;45.9
23253;BME280;11795;47.054;15.408;2023-07-29T09:38:00;97000;;;28.1;45.0
23253;BME280;11795;47.054;15.408;2023-07-29T09:40:00;97000;;;28.1;44.7
23253;BME280;11795;47.054;15.408;2023-07-29T09:42:00;97000;;;28.0;46.2
23253;BME280;11795;47.054;15.408;2023-07-29T09:44:02;97000;;;27.9;45.8
23253;BME280;11795;47.054;15.408;2023-07-29T09:46:01;97010;;;27.9;47.0
23253;BME280;11795;47.054;15.408;2023-07-29T09:48:00;97010;;;28.1;47.4
23253;BME280;11795;47.054;15.408;2023-07-29T09:50:00;97010;;;28.1;45.9
23253;BME280;11795;47.054;15.408;2023-07-29T09:52:02;97000;;;28.2;46.3
23253;BME280;11795;47.054;15.408;2023-07-29T09:54:02;97000;;;28.5;46.4
23253;BME280;11795;47.054;15.408;2023-07-29T09:56:00;97000;;;28.7;46.4
23253;BME280;11795;47.054;15.408;2023-07-29T09:58:02;97000;;;28.9;45.4
23253;BME280;11795;47.054;15.408;2023-07-29T10:00:01;97000;;;29.0;43.2
23253;BME280;11795;47.054;15.408;2023-07-29T10:02:00;97000;;;29.0;43.7
23253;BME280;11795;47.054;15.408;2023-07-29T10:04:02;97000;;;29.0;42.6
23253;BME280;11795;47.054;15.408;2023-07-29T10:06:01;97010;;;28.8;43.5
23253;BME280;11795;47.054;15.408;2023-07-29T10:08:01;97000;;;28.7;42.9
23253;BME280;11795;47.054;15.408;2023-07-29T10:10:01;97010;;;28.9;43.9
23253;BME280;11795;47.054;15.408;2023-07-29T10:12:00;97000;;;29.0;42.4
23253;BME280;11795;47.054;15.408;2023-07-29T10:14:01;97000;;;29.0;42.8
23253;BME280;11795;47.054;15.408;2023-07-29T10:16:03;97000;;;28.9;43.2
23253;BME280;11795;47.054;15.408;2023-07-29T10:18:01;97000;;;28.9;43.2
23253;BME280;11795;47.054;15.408;2023-07-29T10:20:00;97000;;;28.8;43.4
23253;BME280;11795;47.054;15.408;2023-07-29T10:22:02;97000;;;28.9;43.1
23253;BME280;11795;47.054;15.408;2023-07-29T10:24:01;97000;;;28.8;42.4
23253;BME280;11795;47.054;15.408;2023-07-29T10:26:03;96990;;;28.5;43.5
23253;BME280;11795;47.054;15.408;2023-07-29T10:28:04;97000;;;28.6;43.9
23253;BME280;11795;47.054;15.408;2023-07-29T10:30:00;97000;;;28.9;44.3
23253;BME280;11795;47.054;15.408;2023-07-29T10:32:02;97000;;;29.1;43.9
23253;BME280;11795;47.054;15.408;2023-07-29T10:34:00;97000;;;29.4;43.7
23253;BME280;11795;47.054;15.408;2023-07-29T10:36:01;96990;;;29.5;44.1
23253;BME280;11795;47.054;15.408;2023-07-29T10:38:01;97000;;;29.6;44.0
23253;BME280;11795;47.054;15.408;2023-07-29T10:40:00;97000;;;29.8;41.7
23253;BME280;11795;47.054;15.408;2023-07-29T10:42:01;96990;;;29.7;42.8
23253;BME280;11795;47.054;15.408;2023-07-29T10:44:00;97000;;;29.6;41.8
23253;BME280;11795;47.054;15.408;2023-07-29T10:46:14;97000;;;29.5;42.4
23253;BME280;11795;47.054;15.408;2023-07-29T10:48:05;96990;;;29.3;43.6
23253;BME280;11795;47.054;15.408;2023-07-29T10:50:00;96990;;;29.5;43.1
23253;BME280;11795;47.054;15.408;2023-07-29T10:52:00;96990;;;29.6;41.9
23253;BME280;11795;47.054;15.408;2023-07-29T10:54:02;96990;;;29.5;43.0
23253;BME280;11795;47.054;15.408;2023-07-29T10:56:00;96980;;;29.3;44.5
23253;BME280;11795;47.054;15.408;2023-07-29T10:58:09;96980;;;29.4;44.3
23253;BME280;11795;47.054;15.408;2023-07-29T11:00:01;96970;;;29.5;44.1
23253;BME280;11795;47.054;15.408;2023-07-29T11:02:00;96980;;;29.5;44.2
23253;BME280;11795;47.054;15.408;2023-07-29T11:06:04;96970;;;29.5;44.0
23253;BME280;11795;47.054;15.408;2023-07-29T11:08:19;96970;;;29.6;43.7
23253;BME280;11795;47.054;15.408;2023-07-29T11:10:02;96960;;;29.7;44.1
23253;BME280;11795;47.054;15.408;2023-07-29T11:12:05;96970;;;29.8;42.8